Tiempo atmosférico en la estación meteorológica de Garganta De La Olla, Cáceres (690 m.)



Fecha
DESCASC
Temp. máxima en grados centígrados (hora)
DESCASC
Temp. mínima en grados centígrados (hora)
DESCASC
Temp. media en grados centígrados
DESCASC
Racha de viento máxima en m/sg (hora)
DESCASC
Velocidad máxima media en intervalos de 10 minutos(hora)
DESCASC
Precipitaciones diarias en mm
DESCASC
Precipitaciones de 00:00 a 06:00 en mm
DESCASC
Precipitaciones de 06:00 a 12:00 en mm
DESCASC
Precipitaciones de 12:00 a 18:00 en mm
DESCASC
Precipitaciones de 18:00 a 24:00 en mm
DESCASC
18-10-2018 19.9 (16:40) 11.2 (08:40) 15.5 8.06 (04:20) 3.61 (20:20) 22.2 17 5.2 0 0
17-10-2018 20 (16:30) 11.8 (08:30) 15.9 5 (04:10) 3.33 (04:00) 0 0 0 0 0
16-10-2018 19.3 (16:20) 9.8 (08:40) 14.5 5 (23:30) 3.33 (23:40) 0 0 0 0 0
15-10-2018 11.1 (00:50) 8.4 (08:30) 9.8 12.5 (02:20) 7.78 (02:10) 27.6 0 3.6 23 1
14-10-2018 19 (00:40) 10 (00:00) 14.5 20.83 (12:00) 12.78 (10:50) 24 23.8 0 0 0.2
13-10-2018 24 (16:20) 14.3 (00:00) 19.2 8.33 (17:00) 3.61 (16:30) 0 0 0 0 0
12-10-2018 21.2 (16:10) 14.1 (00:00) 17.7 4.44 (20:50) 3.06 (20:00) 0 0 0 0 0
11-10-2018 17.4 (18:20) 14.3 (06:10) 15.8 7.22 (14:50) 3.33 (02:30) 27.2 6 12.2 9 0
10-10-2018 20.3 (17:10) 11.2 (00:00) 15.7 6.11 (17:00) 3.33 (17:10) 0 0 0 0 0
09-10-2018 20 (15:30) 9.2 (08:40) 14.6 8.61 (16:00) 3.89 (15:10) 0 0 0 0 0
08-10-2018 20.8 (16:50) 8.3 (07:20) 14.5 7.5 (12:40) 3.89 (13:40) 0 0 0 0 0
07-10-2018 21.6 (16:50) 11.5 (08:50) 16.6 8.89 (01:10) 6.11 (01:10) 0 0 0 0 0
06-10-2018 27.3 (16:20) 17.4 (05:20) 22.3 9.72 (22:30) 6.11 (22:40) 0 0 0 0 0
05-10-2018 27.5 (17:20) 15.1 (08:20) 21.3 6.67 (23:00) 5 (23:50) 0 0 0 0 0
04-10-2018 27.9 (16:50) 15.7 (00:00) 21.8 6.67 (23:59) 4.72 (23:59) 0 0 0 0 0
03-10-2018 27.5 (17:50) 14.4 (00:00) 20.9 5.83 (22:20) 3.61 (22:20) 0 0 0 0 0
02-10-2018 26 (17:20) 10.5 (00:00) 18.3 6.11 (04:30) 3.89 (04:30) 0 0 0 0 0
01-10-2018 27.9 (17:10) 17.3 (00:00) 22.6 8.61 (00:20) 6.11 (00:10) 0 0 0 0 0
30-09-2018 30.1 (16:20) 17.8 (00:00) 23.9 7.78 (18:00) 5.56 (23:59) 0 0 0 0 0
29-09-2018 29 (16:40) 17.5 (00:00) 23.3 6.11 (23:10) 4.72 (23:10) 0 0 0 0 0
28-09-2018 28.3 (16:20) 16.3 (00:00) 22.3 5.28 (01:00) 3.89 (01:20) 0 0 0 0 0
27-09-2018 27 (16:40) 16 (00:00) 21.5 6.39 (15:30) 3.61 (01:50) 0 0 0 0 0
26-09-2018 26 (14:50) 18.5 (00:00) 22.3 8.33 (15:40) 4.72 (15:40) 0 0 0 0 0
25-09-2018 31.9 (17:40) 19.4 (00:00) 25.6 6.94 (21:10) 5 (20:40) 0 0 0 0 0
24-09-2018 33 (16:00) 21 (00:00) 27 7.78 (00:10) 4.44 (00:10) 0 0 0 0 0
23-09-2018 33.6 (16:50) 21.4 (07:40) 27.5 8.33 (23:10) 5.28 (19:30) 0 0 0 0 0
22-09-2018 32.6 (17:00) 20.4 (08:10) 26.5 6.67 (21:30) 5 (21:30) 0 0 0 0 0

Gráficas

Temp. máximas Temp. mínimas Temp. medias Precipitaciones Rachas de viento máximas Velocidades máximas media en intervalos de 10 minutos

Datos horarios

Fecha y hora oficial Temperatura (ºC) Velocidad del viento (km/h) Dirección del viento Racha (km/h) Dirección de racha Precipitación (mm) Presión (hPa) Tendencia (hPa) Humedad (%)
2018-10-21 23:00:00 17.3 3 Oeste 10 Noroeste 0 -- -- 72
2018-10-21 22:00:00 16.6 5 Noroeste 10 Noroeste 0 -- -- 78
2018-10-21 21:00:00 15.8 4 Noroeste 16 Noroeste 0 -- -- 80
2018-10-21 20:00:00 16.8 8 Noroeste 16 Noroeste 0 -- -- 77
2018-10-21 19:00:00 17.2 8 Noroeste 11 Noroeste 0 -- -- 81
2018-10-21 18:00:00 18.5 4 Oeste 9 Este 0 -- -- 75
2018-10-21 17:00:00 18.4 10 Sur 24 Este 0 -- -- 73
2018-10-21 16:00:00 18.7 14 Sudeste 24 Sudeste 0 -- -- 73
2018-10-21 15:00:00 18.1 17 Sudeste 32 Sur 0 -- -- 74
2018-10-21 14:00:00 17.4 14 Sudeste 35 Sudeste 0 -- -- 78
2018-10-21 13:00:00 16.8 16 Sudeste 39 Sudeste 0 -- -- 79
2018-10-21 12:00:00 16.7 15 Sudeste 40 Sudeste 0 -- -- 80
2018-10-21 11:00:00 16.3 17 Sur 34 Sur 0 -- -- 80
2018-10-21 10:00:00 16.2 12 Sudeste 33 Sur 0 -- -- 80
2018-10-21 09:00:00 16 15 Sur 35 Sur 0 -- -- 81
2018-10-21 08:00:00 15.9 15 Sur 30 Sur 0 -- -- 82
2018-10-21 07:00:00 16 12 Sur 42 Sudeste 0 -- -- 81
2018-10-21 06:00:00 16.1 17 Sudeste 37 Este 0 -- -- 81
2018-10-21 05:00:00 16 14 Sudeste 39 Sudeste 0 -- -- 81
2018-10-21 04:00:00 16.2 15 Sudeste 40 Sudeste 0 -- -- 80
2018-10-21 03:00:00 16.3 21 Sudeste 66 Sudeste 0 -- -- 79
2018-10-21 02:00:00 16.4 27 Sudeste 58 Sudeste 0 -- -- 79
2018-10-21 01:00:00 16.3 22 Sudeste 54 Sudeste 0 -- -- 80
2018-10-21 00:00:00 16.1 20 Sudeste 49 Sudeste 0.2 -- -- 84
2018-10-20 23:00:00 15.4 21 Sur 42 Sur 2.6 -- -- 90
2018-10-20 22:00:00 14 6 Oeste 18 Sudoeste 0.2 -- -- 93
2018-10-20 21:00:00 13.4 11 Sudoeste 61 Sudeste 7.8 -- -- 94
2018-10-20 20:00:00 17.5 13 Sur 27 Sur 0 -- -- 72
2018-10-20 19:00:00 17.8 13 Sur 32 Sur 0 -- -- 70
2018-10-20 18:00:00 18.1 9 Sudeste 23 Sudeste 0 -- -- 67
2018-10-20 17:00:00 18.2 12 Sur 36 Sur 0 -- -- 68
2018-10-20 16:00:00 19 17 Sudeste 37 Sudeste 0 -- -- 64
2018-10-20 15:00:00 17.4 13 Sudeste 45 Sur 0 -- -- 70
2018-10-20 14:00:00 16.7 10 Sudeste 33 Sudeste 0 -- -- 74
2018-10-20 13:00:00 16.8 13 Sur 39 Sur 0 -- -- 72
2018-10-20 12:00:00 17.1 17 Sudeste 41 Sur 0 -- -- 69
2018-10-20 11:00:00 16.7 12 Sudeste 35 Sur 0 -- -- 75
2018-10-20 10:00:00 16.3 8 Sudoeste 32 Sudeste 0 -- -- 76
2018-10-20 09:00:00 14.3 15 Sur 40 Sur 0 -- -- 85
2018-10-20 08:00:00 13.8 14 Sur 34 Sur 0 -- -- 87
2018-10-20 07:00:00 14 10 Sudoeste 24 Sudoeste 0 -- -- 88
2018-10-20 06:00:00 13.9 8 Sudoeste 26 Sur 0 -- -- 88
2018-10-20 05:00:00 13.3 3 Oeste 12 Noroeste 0.2 -- -- 93
2018-10-20 04:00:00 13.8 8 Sudoeste 12 Sur 0 -- -- 90
2018-10-20 03:00:00 13.7 4 Noroeste 18 Noroeste 0 -- -- 89
2018-10-20 02:00:00 13.3 0 Calma 13 Sur 0 -- -- 95
2018-10-20 01:00:00 13.3 6 Oeste 21 Noroeste 0.2 -- -- 94
2018-10-20 00:00:00 13.3 3 Sur 12 Noroeste 0 -- -- 95
2018-10-19 23:00:00 13.6 8 Noroeste 17 Noroeste 0.2 -- -- 94
2018-10-19 22:00:00 13.7 5 Noroeste 10 Noroeste 1 -- -- 97
2018-10-19 21:00:00 13.8 0 Calma 8 Sudoeste 0 -- -- 96
2018-10-19 20:00:00 13.8 3 Sudoeste 12 Oeste 1 -- -- 96
2018-10-19 19:00:00 13.9 8 Sudeste 34 Sudeste 5.8 -- -- 96
2018-10-19 18:00:00 17.3 4 Noroeste 9 Norte 0 -- -- 81
2018-10-19 17:00:00 17.8 5 Nordeste 14 Sudeste 0 -- -- 76
2018-10-19 16:00:00 18.5 10 Sur 17 Sur 0 -- -- 68
2018-10-19 15:00:00 17.2 7 Sudeste 18 Sudeste 0 -- -- 74
2018-10-19 14:00:00 16.3 3 Norte 16 Sudeste 0 -- -- 74
2018-10-19 13:00:00 15.9 9 Sur 17 Nordeste 0 -- -- 79
2018-10-19 12:00:00 15.3 4 Norte 11 Nordeste 0 -- -- 84
2018-10-19 11:00:00 14.9 5 Sudoeste 15 Noroeste 0 -- -- 82
2018-10-19 10:00:00 13.1 5 Noroeste 10 Noroeste 0 -- -- 96
2018-10-19 09:00:00 12.5 5 Sudoeste 17 Sudoeste 0 -- -- 95
2018-10-19 08:00:00 13.2 10 Sudoeste 18 Sur 0.2 -- -- 92
2018-10-19 07:00:00 12.7 8 Norte 15 Noroeste 0.4 -- -- 98
2018-10-19 06:00:00 13.1 2 Nordeste 13 Sudoeste 0 -- -- 93
2018-10-19 05:00:00 12.7 5 Norte 10 Noroeste 0 -- -- 93
2018-10-19 04:00:00 13.3 0 Calma 10 Sur 0 -- -- 90
2018-10-19 03:00:00 13.9 6 Noroeste 12 Norte 0 -- -- 86
2018-10-19 02:00:00 14.5 3 Noroeste 10 Noroeste 0 -- -- 82
2018-10-19 01:00:00 14.5 2 Oeste 14 Noroeste 0 -- -- 80
2018-10-19 00:00:00 14.5 6 Noroeste 16 Noroeste 0 -- -- 78
2018-10-18 23:00:00 16.2 5 Sur 14 Sudeste 0 -- -- 70
2018-10-18 22:00:00 16.2 6 Noroeste 12 Noroeste 0 -- -- 65
2018-10-18 21:00:00 15.3 8 Noroeste 19 Noroeste 0 -- -- 69
2018-10-18 20:00:00 15.8 8 Noroeste 12 Noroeste 0 -- -- 71
2018-10-18 19:00:00 16.8 5 Noroeste 16 Noroeste 0 -- -- 69
2018-10-18 18:00:00 18.1 7 Noroeste 20 Sudeste 0 -- -- 71
2018-10-18 17:00:00 19.7 8 Sudeste 13 Sur 0 -- -- 61
2018-10-18 16:00:00 18.2 5 Este 23 Sudeste 0 -- -- 70
2018-10-18 15:00:00 18.1 7 Este 17 Nordeste 0 -- -- 71
2018-10-18 14:00:00 16.6 3 Sur 16 Sur 0 -- -- 80
2018-10-18 13:00:00 15.8 6 Sudoeste 10 Sudoeste 0 -- -- 70
2018-10-18 12:00:00 14.3 8 Noroeste 22 Noroeste 0.2 -- -- 77
2018-10-18 11:00:00 13.1 4 Este 16 Noroeste 1 -- -- 85
2018-10-18 10:00:00 12.6 4 Sudoeste 17 Nordeste 0.4 -- -- 85
2018-10-18 09:00:00 11.4 5 Oeste 17 Noroeste 0.4 -- -- 92
2018-10-18 08:00:00 11.5 3 Sudoeste 14 Noroeste 0.8 -- -- 91
2018-10-18 07:00:00 11.8 10 Noroeste 21 Noroeste 2.4 -- -- 93
2018-10-18 06:00:00 12.4 9 Sur 16 Sur 4.4 -- -- 97
2018-10-18 05:00:00 12.6 3 Sudeste 29 Sur 12.6 -- -- 96
2018-10-18 04:00:00 14.5 7 Sur 13 Sur 0 -- -- 82
2018-10-18 03:00:00 14.7 7 Noroeste 13 Norte 0 -- -- 78
2018-10-18 02:00:00 15 0 Calma 10 Noroeste 0 -- -- 77
2018-10-18 01:00:00 15 6 Noroeste 10 Noroeste 0 -- -- 76
2018-10-18 00:00:00 15.1 5 Noroeste 11 Noroeste 0 -- -- 76
2018-10-17 23:00:00 15.6 3 Norte 10 Noroeste 0 -- -- 74
2018-10-17 22:00:00 16.1 4 Oeste 12 Noroeste 0 -- -- 71
2018-10-17 21:00:00 16.3 9 Noroeste 16 Noroeste 0 -- -- 69
2018-10-17 20:00:00 16 10 Noroeste 14 Noroeste 0 -- -- 71
2018-10-17 19:00:00 18.1 0 Calma 12 Sudoeste 0 -- -- 66
2018-10-17 18:00:00 19 4 Sudoeste 12 Sur 0 -- -- 59
2018-10-17 17:00:00 19.4 5 Sudoeste 18 Sudeste 0 -- -- 58
2018-10-17 16:00:00 19.4 8 Este 15 Sudeste 0 -- -- 62
2018-10-17 15:00:00 18.3 5 Sur 18 Sudeste 0 -- -- 66
2018-10-17 14:00:00 19.4 7 Sur 15 Sudeste 0 -- -- 62
2018-10-17 13:00:00 18.7 7 Sur 14 Sur 0 -- -- 68
2018-10-17 12:00:00 17.7 7 Sudeste 12 Sudeste 0 -- -- 72
2018-10-17 11:00:00 16.6 5 Sudeste 10 Sur 0 -- -- 74
2018-10-17 10:00:00 15.5 5 Sur 10 Sur 0 -- -- 73
2018-10-17 09:00:00 12.1 3 Noroeste 12 Noroeste 0 -- -- 84
2018-10-17 08:00:00 12.7 0 Calma 11 Noroeste 0 -- -- 81
2018-10-17 07:00:00 13.3 0 Calma 16 Noroeste 0 -- -- 80
2018-10-17 06:00:00 13.5 8 Noroeste 14 Noroeste 0 -- -- 80
2018-10-17 05:00:00 13.8 9 Noroeste 18 Noroeste 0 -- -- 79
2018-10-17 04:00:00 13.7 12 Noroeste 18 Noroeste 0 -- -- 81
2018-10-17 03:00:00 13.5 6 Noroeste 15 Noroeste 0 -- -- 81
2018-10-17 02:00:00 13.6 4 Noroeste 16 Noroeste 0 -- -- 80
2018-10-17 01:00:00 13.7 9 Noroeste 15 Noroeste 0 -- -- 80
2018-10-17 00:00:00 13.9 10 Noroeste 18 Noroeste 0 -- -- 80
2018-10-16 23:00:00 13.6 6 Noroeste 16 Noroeste 0 -- -- 84
2018-10-16 22:00:00 13.2 10 Noroeste 15 Noroeste 0 -- -- 88
2018-10-16 21:00:00 14 9 Noroeste 14 Noroeste 0 -- -- 84
2018-10-16 20:00:00 14.3 4 Noroeste 9 Noroeste 0 -- -- 83
2018-10-16 19:00:00 15.3 6 Noroeste 9 Noroeste 0 -- -- 80
2018-10-16 18:00:00 17 0 Calma 14 Sudeste 0 -- -- 74
2018-10-16 17:00:00 18.4 8 Sudeste 17 Sur 0 -- -- 68
2018-10-16 16:00:00 19.1 9 Sur 17 Sudeste 0 -- -- 66
2018-10-16 15:00:00 18.5 9 Sudeste 16 Sudeste 0 -- -- 66
2018-10-16 14:00:00 18 6 Sudeste 14 Sudeste 0 -- -- 68
2018-10-16 13:00:00 16.8 9 Sur 16 Sudeste 0 -- -- 72
2018-10-16 12:00:00 15.6 7 Sudeste 14 Sudeste 0 -- -- 77
2018-10-16 11:00:00 14.8 6 Sudeste 9 Sudeste 0 -- -- 80
2018-10-16 10:00:00 13.3 2 Nordeste 5 Este 0 -- -- 86
2018-10-16 09:00:00 10.1 0 Calma 10 Noroeste 0 -- -- 96
2018-10-16 08:00:00 10.3 7 Noroeste 13 Noroeste 0 -- -- 96
2018-10-16 07:00:00 10.5 6 Noroeste 10 Noroeste 0 -- -- 97
2018-10-16 06:00:00 10.1 5 Noroeste 13 Noroeste 0 -- -- 96
2018-10-16 05:00:00 10.2 8 Noroeste 13 Noroeste 0 -- -- 98
2018-10-16 04:00:00 10.5 5 Noroeste 8 Noroeste 0 -- -- 99
2018-10-16 03:00:00 10.4 5 Noroeste 9 Noroeste 0 -- -- 98
2018-10-16 02:00:00 10.6 3 Noroeste 9 Noroeste 0 -- -- 99
2018-10-16 01:00:00 10.5 3 Noroeste 9 Noroeste 0 -- -- 99
2018-10-16 00:00:00 10.5 6 Noroeste 10 Noroeste 0 -- -- 99
2018-10-15 23:00:00 10.4 0 Calma 4 Norte 0 -- -- 99
2018-10-15 22:00:00 10.3 2 Noroeste 5 Noroeste 0.2 -- -- 99
2018-10-15 21:00:00 10.2 2 Sudoeste 6 Sudoeste 0 -- -- 100
2018-10-15 20:00:00 10.1 4 Sudoeste 9 Sur 0.2 -- -- 100
2018-10-15 19:00:00 10 5 Sur 13 Sur 0.6 -- -- 100
2018-10-15 18:00:00 10 6 Sudoeste 17 Sur 0.8 -- -- 100
2018-10-15 17:00:00 10.4 9 Sur 15 Sur 1.8 -- -- 99
2018-10-15 16:00:00 10.7 4 Sur 9 Sudoeste 2.2 -- -- 98
2018-10-15 15:00:00 10.2 8 Sur 12 Sur 3.6 -- -- 99
2018-10-15 14:00:00 9.6 0 Calma 8 Noroeste 5.2 -- -- 99
2018-10-15 13:00:00 9.2 3 Norte 15 Noroeste 9.4 -- -- 98
2018-10-15 12:00:00 9.2 0 Calma 4 Sur 2.8 -- -- 98
2018-10-15 11:00:00 8.6 0 Calma 4 Sur 0.8 -- -- 95
2018-10-15 10:00:00 8.9 0 Calma 6 Sur 0 -- -- 93
2018-10-15 09:00:00 8.5 0 Calma 6 Noroeste 0 -- -- 90
2018-10-15 08:00:00 8.8 0 Calma 17 Noroeste 0 -- -- 85
2018-10-15 07:00:00 10.1 8 Noroeste 24 Noroeste 0 -- -- 53
2018-10-15 06:00:00 10.1 11 Noroeste 26 Noroeste 0 -- -- 65
2018-10-15 05:00:00 9.5 13 Noroeste 27 Noroeste 0 -- -- 73
2018-10-15 04:00:00 9.5 23 Noroeste 37 Noroeste 0 -- -- 75
2018-10-15 03:00:00 10.5 19 Norte 45 Noroeste 0 -- -- 69
2018-10-15 02:00:00 11 21 Norte 40 Noroeste 0 -- -- 70
2018-10-15 01:00:00 11.1 25 Noroeste 38 Noroeste 0 -- -- 71
2018-10-15 00:00:00 10.9 13 Noroeste 25 Noroeste 0 -- -- 74
2018-10-14 23:00:00 10.7 10 Noroeste 22 Noroeste 0 -- -- 75
2018-10-14 22:00:00 11.4 8 Norte 18 Norte 0 -- -- 77
2018-10-14 21:00:00 10.5 5 Norte 10 Noroeste 0 -- -- 84
2018-10-14 20:00:00 10.8 4 Noroeste 23 Noroeste 0.2 -- -- 84
2018-10-14 19:00:00 12.7 9 Noroeste 28 Norte 0 -- -- 68
2018-10-14 18:00:00 12.7 15 Norte 41 Norte 0 -- -- 67
2018-10-14 17:00:00 12.5 22 Norte 45 Norte 0 -- -- 69
2018-10-14 16:00:00 13 19 Norte 45 Noroeste 0 -- -- 69
2018-10-14 15:00:00 12.9 26 Noroeste 49 Norte 0 -- -- 67
2018-10-14 14:00:00 13.1 15 Norte 45 Noroeste 0 -- -- 62
2018-10-14 13:00:00 13.7 22 Norte 68 Norte 0 -- -- 61
2018-10-14 12:00:00 12.4 40 Norte 75 Norte 0 -- -- 62
2018-10-14 11:00:00 11.6 40 Norte 72 Norte 0 -- -- 69
2018-10-14 10:00:00 12.1 41 Noroeste 65 Noroeste 0 -- -- 78
2018-10-14 09:00:00 11.6 24 Noroeste 41 Noroeste 0 -- -- 87
2018-10-14 08:00:00 11.1 24 Norte 49 Noroeste 0 -- -- 93
2018-10-14 07:00:00 11.5 15 Noroeste 49 Noroeste 0 -- -- 94
2018-10-14 06:00:00 12.9 16 Noroeste 36 Oeste 0.6 -- -- 92
2018-10-14 05:00:00 14.5 6 Sur 22 Sur 5.8 -- -- 99
2018-10-14 04:00:00 14.6 9 Sudeste 23 Noroeste 6.2 -- -- 98
2018-10-14 03:00:00 15 13 Noroeste 46 Noroeste 11.2 -- -- 91
2018-10-14 02:00:00 17.8 4 Sur 11 Sur 0 -- -- 74
2018-10-14 01:00:00 18.8 4 Sur 14 Sur 0 -- -- 69
2018-10-14 00:00:00 18.6 5 Sudoeste 17 Sudoeste 0 -- -- 71
2018-10-13 23:00:00 18.8 6 Sudoeste 18 Sur 0 -- -- 70
2018-10-13 22:00:00 19.9 7 Sur 15 Sudoeste 0 -- -- 66
2018-10-13 21:00:00 20.2 5 Sudoeste 21 Sudoeste 0 -- -- 65
2018-10-13 20:00:00 20.7 4 Sur 15 Sudoeste 0 -- -- 63
2018-10-13 19:00:00 21.9 5 Sur 21 Sur 0 -- -- 60
2018-10-13 18:00:00 23 9 Sudeste 26 Sudeste 0 -- -- 57
2018-10-13 17:00:00 23.6 12 Sur 30 Sur 0 -- -- 56
2018-10-13 16:00:00 23 10 Sur 20 Sur 0 -- -- 58
2018-10-13 15:00:00 22.8 10 Sudeste 18 Sudeste 0 -- -- 64
2018-10-13 14:00:00 21.9 10 Sudeste 19 Sur 0 -- -- 66
2018-10-13 13:00:00 22.5 10 Sur 19 Sur 0 -- -- 66
2018-10-13 12:00:00 22.2 7 Sudeste 13 Sur 0 -- -- 68
2018-10-13 11:00:00 20.1 5 Sudeste 13 Sur 0 -- -- 75
2018-10-13 10:00:00 18.4 3 Sur 8 Oeste 0 -- -- 82
2018-10-13 09:00:00 16.4 3 Sudoeste 7 Sur 0 -- -- 89
2018-10-13 08:00:00 15.9 0 Calma 6 Sudoeste 0 -- -- 90
2018-10-13 07:00:00 15.9 2 Sudeste 9 Oeste 0 -- -- 90
2018-10-13 06:00:00 14.8 0 Calma 13 Noroeste 0 -- -- 91
2018-10-13 05:00:00 15.4 3 Sudoeste 12 Noroeste 0 -- -- 86
2018-10-13 04:00:00 15.5 9 Noroeste 14 Noroeste 0 -- -- 88
2018-10-13 03:00:00 15.5 8 Noroeste 15 Noroeste 0 -- -- 88
2018-10-13 02:00:00 15.5 4 Noroeste 12 Noroeste 0 -- -- 90
2018-10-13 01:00:00 15.1 6 Noroeste 14 Noroeste 0 -- -- 92
2018-10-13 00:00:00 15.5 8 Noroeste 13 Noroeste 0 -- -- 90
2018-10-12 23:00:00 15.5 6 Noroeste 12 Noroeste 0 -- -- 88
2018-10-12 22:00:00 16.3 9 Noroeste 14 Noroeste 0 -- -- 83
2018-10-12 21:00:00 16.4 9 Noroeste 16 Noroeste 0 -- -- 84
2018-10-12 20:00:00 17 11 Noroeste 15 Noroeste 0 -- -- 81
2018-10-12 19:00:00 19.1 3 Oeste 8 Sudoeste 0 -- -- 74
2018-10-12 18:00:00 20.6 4 Sudoeste 8 Sur 0 -- -- 64
2018-10-12 17:00:00 21.2 3 Sur 9 Sur 0 -- -- 61
2018-10-12 16:00:00 21 6 Sudeste 13 Sudeste 0 -- -- 61
2018-10-12 15:00:00 20.6 4 Sur 16 Sudeste 0 -- -- 66
2018-10-12 14:00:00 19.8 4 Este 10 Sur 0 -- -- 74
2018-10-12 13:00:00 18.6 4 Sudoeste 8 Norte 0 -- -- 75
2018-10-12 12:00:00 17.6 3 Sur 6 Norte 0 -- -- 82
2018-10-12 11:00:00 15.9 2 Sudeste 6 Nordeste 0 -- -- 90
2018-10-12 10:00:00 15.3 2 Sur 10 Oeste 0 -- -- 93
2018-10-12 09:00:00 14.4 8 Noroeste 13 Noroeste 0 -- -- 92
2018-10-12 08:00:00 14.1 4 Noroeste 11 Noroeste 0 -- -- 94
2018-10-12 07:00:00 15 0 Calma 4 Oeste 0 -- -- 98
2018-10-12 06:00:00 15.3 0 Calma 6 Sur 0 -- -- 98
2018-10-12 05:00:00 15.1 2 Sur 8 Noroeste 0 -- -- 98
2018-10-12 04:00:00 15.2 6 Noroeste 10 Noroeste 0 -- -- 96
2018-10-12 03:00:00 15.4 7 Noroeste 9 Noroeste 0 -- -- 98
2018-10-12 02:00:00 15.8 2 Sudoeste 6 Noroeste 0 -- -- 98
2018-10-12 01:00:00 16 0 Calma 7 Sur 0 -- -- 98
2018-10-12 00:00:00 16.1 0 Calma 6 Noroeste 0 -- -- 97
2018-10-11 23:00:00 16.2 3 Noroeste 9 Noroeste 0 -- -- 97
2018-10-11 22:00:00 16.4 2 Norte 6 Sur 0 -- -- 97
2018-10-11 21:00:00 16.4 0 Calma 7 Noroeste 0 -- -- 97
2018-10-11 20:00:00 16.6 2 Oeste 8 Nordeste 0 -- -- 94
2018-10-11 19:00:00 17.1 3 Nordeste 6 Nordeste 0 -- -- 95
2018-10-11 18:00:00 17.3 2 Sur 10 Este 0 -- -- 94
2018-10-11 17:00:00 16.1 4 Nordeste 12 Este 0.4 -- -- 98
2018-10-11 16:00:00 15.8 4 Nordeste 19 Oeste 3.8 -- -- 97
2018-10-11 15:00:00 16.4 4 Sur 26 Oeste 2.6 -- -- 96
2018-10-11 14:00:00 16.2 4 Este 11 Sudeste 1.8 -- -- 99
2018-10-11 13:00:00 15.8 6 Sudeste 15 Sudeste 0.4 -- -- 99
2018-10-11 12:00:00 15.5 6 Sur 15 Sur 0 -- -- 99
2018-10-11 11:00:00 15.3 4 Sudeste 8 Sudeste 0 -- -- 99
2018-10-11 10:00:00 15.1 0 Calma 5 Nordeste 4 -- -- 99
2018-10-11 09:00:00 14.7 3 Nordeste 5 Este 1.4 -- -- 98
2018-10-11 08:00:00 14.6 0 Calma 5 Sudeste 2.6 -- -- 98
2018-10-11 07:00:00 14.4 0 Calma 6 Nordeste 4.2 -- -- 98
2018-10-11 06:00:00 14.4 0 Calma 8 Sudoeste 5.2 -- -- 95
2018-10-11 05:00:00 15 4 Sudoeste 11 Sur 0.8 -- -- 90
2018-10-11 04:00:00 16 7 Sur 13 Sur 0 -- -- 78
2018-10-11 03:00:00 16.3 6 Sur 20 Sur 0 -- -- 71
2018-10-11 02:00:00 16.8 5 Sur 9 Sur 0 -- -- 68
2018-10-11 01:00:00 16.7 0 Calma 9 Noroeste 0 -- -- 68
2018-10-11 00:00:00 16.4 4 Noroeste 12 Noroeste 0 -- -- 69
2018-10-10 23:00:00 15.3 7 Noroeste 12 Noroeste 0 -- -- 72
2018-10-10 22:00:00 16.1 0 Calma 8 Noroeste 0 -- -- 70
2018-10-10 21:00:00 16 4 Oeste 9 Noroeste 0 -- -- 70
2018-10-10 20:00:00 17.3 5 Sudoeste 12 Sudoeste 0 -- -- 65
2018-10-10 19:00:00 18.8 5 Sur 13 Sur 0 -- -- 60
2018-10-10 18:00:00 19.6 5 Sudeste 22 Sur 0 -- -- 56
2018-10-10 17:00:00 20.2 11 Sur 22 Sur 0 -- -- 54
2018-10-10 16:00:00 18.9 6 Sur 14 Sur 0 -- -- 59
2018-10-10 15:00:00 18.3 4 Sudeste 14 Sur 0 -- -- 61
2018-10-10 14:00:00 17.2 2 Nordeste 14 Sudoeste 0 -- -- 64
2018-10-10 13:00:00 14.7 5 Sur 13 Sudoeste 0 -- -- 72
2018-10-10 12:00:00 14.7 5 Sur 12 Sur 0 -- -- 71
2018-10-10 11:00:00 14 3 Sur 10 Sudoeste 0 -- -- 74
2018-10-10 10:00:00 13.4 3 Sur 11 Sur 0 -- -- 75
2018-10-10 09:00:00 13 3 Sur 7 Oeste 0 -- -- 78
2018-10-10 08:00:00 12.5 2 Sudoeste 8 Sudoeste 0 -- -- 78
2018-10-10 07:00:00 12.7 4 Sudoeste 10 Sur 0 -- -- 77
2018-10-10 06:00:00 12.7 3 Norte 13 Sudoeste 0 -- -- 77
2018-10-10 05:00:00 11.8 4 Sudoeste 12 Sudoeste 0 -- -- 78
2018-10-10 04:00:00 11.5 0 Calma 13 Noroeste 0 -- -- 78
2018-10-10 03:00:00 12.4 3 Sur 17 Sur 0 -- -- 75
2018-10-10 02:00:00 12.8 3 Noroeste 12 Noroeste 0 -- -- 70
2018-10-10 01:00:00 14.6 3 Sudoeste 19 Sur 0 -- -- 64
2018-10-10 00:00:00 15.4 6 Sur 17 Sur 0 -- -- 58
2018-10-09 23:00:00 16 5 Sur 17 Sudeste 0 -- -- 51
2018-10-09 22:00:00 15.3 3 Norte 13 Sudeste 0 -- -- 49
2018-10-09 21:00:00 15 4 Norte 8 Norte 0 -- -- 50
2018-10-09 20:00:00 16 2 Norte 19 Sudeste 0 -- -- 49
2018-10-09 19:00:00 17.4 5 Sudeste 22 Sur 0 -- -- 45
2018-10-09 18:00:00 18.6 10 Sudeste 31 Sudeste 0 -- -- 42
2018-10-09 17:00:00 19.3 13 Sudeste 29 Sudeste 0 -- -- 43
2018-10-09 16:00:00 20 12 Sur 31 Sudeste 0 -- -- 41
2018-10-09 15:00:00 19.2 12 Sur 30 Sudeste 0 -- -- 45
2018-10-09 14:00:00 19.4 11 Sur 23 Sudeste 0 -- -- 45
2018-10-09 13:00:00 17.9 11 Sur 24 Sur 0 -- -- 50
2018-10-09 12:00:00 17.2 9 Sur 21 Sur 0 -- -- 51
2018-10-09 11:00:00 16.8 6 Sudeste 17 Sur 0 -- -- 53
2018-10-09 10:00:00 14.1 4 Nordeste 10 Nordeste 0 -- -- 59
2018-10-09 09:00:00 9.9 0 Calma 8 Norte 0 -- -- 75
2018-10-09 08:00:00 10.5 3 Noroeste 11 Oeste 0 -- -- 70
2018-10-09 07:00:00 11.6 4 Sudoeste 18 Sudoeste 0 -- -- 65
2018-10-09 06:00:00 12.2 8 Sudoeste 15 Sudoeste 0 -- -- 59
2018-10-09 05:00:00 11.9 4 Noroeste 8 Noroeste 0 -- -- 59
2018-10-09 04:00:00 13 3 Norte 8 Norte 0 -- -- 54
2018-10-09 03:00:00 13.4 3 Norte 11 Noroeste 0 -- -- 54
2018-10-09 02:00:00 13.2 3 Noroeste 8 Noroeste 0 -- -- 55
2018-10-09 01:00:00 14.5 3 Nordeste 13 Sudeste 0 -- -- 51
2018-10-09 00:00:00 13.8 4 Norte 12 Norte 0 -- -- 54
2018-10-08 23:00:00 14.1 4 Norte 13 Noroeste 0 -- -- 53
2018-10-08 22:00:00 14 6 Norte 15 Noroeste 0 -- -- 54
2018-10-08 21:00:00 14.3 13 Noroeste 18 Noroeste 0 -- -- 53
2018-10-08 20:00:00 14.6 10 Noroeste 15 Noroeste 0 -- -- 53
2018-10-08 19:00:00 16.3 5 Oeste 10 Sudoeste 0 -- -- 48
2018-10-08 18:00:00 20 7 Sur 20 Sur 0 -- -- 38
2018-10-08 17:00:00 20.7 9 Sur 18 Sur 0 -- -- 37
2018-10-08 16:00:00 20.5 6 Sur 15 Sur 0 -- -- 38
2018-10-08 15:00:00 19.5 9 Sur 23 Sur 0 -- -- 39
2018-10-08 14:00:00 19 10 Sur 24 Sur 0 -- -- 39
2018-10-08 13:00:00 18.6 12 Sudeste 27 Sudeste 0 -- -- 39
2018-10-08 12:00:00 17.3 4 Sur 12 Sudeste 0 -- -- 41
2018-10-08 11:00:00 15.5 6 Sur 14 Sudeste 0 -- -- 45
2018-10-08 10:00:00 13.5 3 Este 8 Sudoeste 0 -- -- 50
2018-10-08 09:00:00 10.3 5 Sur 12 Noroeste 0 -- -- 57
2018-10-08 08:00:00 8.8 8 Noroeste 13 Noroeste 0 -- -- 61
2018-10-08 07:00:00 9 8 Noroeste 14 Noroeste 0 -- -- 60
2018-10-08 06:00:00 10.5 2 Oeste 8 Noroeste 0 -- -- 54
2018-10-08 05:00:00 10.7 5 Noroeste 12 Noroeste 0 -- -- 52
2018-10-08 04:00:00 12.3 5 Sur 11 Sudoeste 0 -- -- 46
2018-10-08 03:00:00 12.6 3 Norte 19 Noroeste 0 -- -- 44
2018-10-08 02:00:00 11.8 3 Sur 19 Noroeste 0 -- -- 47
2018-10-08 01:00:00 11.6 10 Noroeste 19 Noroeste 0 -- -- 51
2018-10-08 00:00:00 13.5 6 Sur 15 Sur 0 -- -- 47
2018-10-07 23:00:00 13.3 11 Noroeste 15 Noroeste 0 -- -- 48
2018-10-07 22:00:00 14.6 3 Noroeste 14 Noroeste 0 -- -- 47
2018-10-07 21:00:00 15.1 6 Noroeste 17 Noroeste 0 -- -- 50
2018-10-07 20:00:00 15.9 11 Noroeste 15 Noroeste 0 -- -- 49
2018-10-07 19:00:00 17.8 5 Sudoeste 12 Sudoeste 0 -- -- 45
2018-10-07 18:00:00 21.5 6 Sur 15 Sur 0 -- -- 37
2018-10-07 17:00:00 21.4 4 Sudeste 18 Sudeste 0 -- -- 37
2018-10-07 16:00:00 21.3 7 Sudoeste 19 Sudeste 0 -- -- 38
2018-10-07 15:00:00 20.2 6 Sudeste 24 Sudeste 0 -- -- 41
2018-10-07 14:00:00 20 12 Sudeste 24 Sudeste 0 -- -- 41
2018-10-07 13:00:00 19.4 10 Sur 21 Sur 0 -- -- 42
2018-10-07 12:00:00 18.6 8 Sur 15 Sur 0 -- -- 44
2018-10-07 11:00:00 17.3 6 Sur 14 Sur 0 -- -- 47
2018-10-07 10:00:00 16 5 Sudeste 12 Este 0 -- -- 53
2018-10-07 09:00:00 12.2 6 Noroeste 12 Sur 0 -- -- 67
2018-10-07 08:00:00 12.7 10 Sudoeste 17 Sudoeste 0 -- -- 63
2018-10-07 07:00:00 12.8 4 Noroeste 12 Noroeste 0 -- -- 51
2018-10-07 06:00:00 -- 3 Sudoeste 16 Noroeste 0 -- -- --
2018-10-07 05:00:00 18.1 14 Noroeste 30 Noroeste 0 -- -- 41
2018-10-07 04:00:00 17.6 12 Noroeste 31 Noroeste 0 -- -- 44
2018-10-07 03:00:00 18.2 16 Noroeste 31 Noroeste 0 -- -- 42
2018-10-07 02:00:00 18.3 18 Noroeste 32 Noroeste 0 -- -- 44
2018-10-07 01:00:00 18.7 19 Norte 31 Noroeste 0 -- -- 45
2018-10-07 00:00:00 19.2 17 Norte 31 Norte 0 -- -- 42
2018-10-06 23:00:00 19.5 21 Noroeste 35 Norte 0 -- -- 41
2018-10-06 22:00:00 19.9 14 Norte 27 Noroeste 0 -- -- 40
2018-10-06 21:00:00 21.1 18 Norte 24 Noroeste 0 -- -- 36
2018-10-06 20:00:00 23.1 8 Oeste 23 Oeste 0 -- -- 31
2018-10-06 19:00:00 24.4 8 Oeste 33 Oeste 0 -- -- 28
2018-10-06 18:00:00 26.4 9 Oeste 29 Oeste 0 -- -- 28
2018-10-06 17:00:00 27.2 7 Noroeste 29 Norte 0 -- -- 27
2018-10-06 16:00:00 26.9 13 Noroeste 31 Noroeste 0 -- -- 28
2018-10-06 15:00:00 26.7 6 Noroeste 18 Sudeste 0 -- -- 28
2018-10-06 14:00:00 25.6 8 Sudeste 17 Sudeste 0 -- -- 33
2018-10-06 13:00:00 24.6 7 Sudeste 16 Sudeste 0 -- -- 33
2018-10-06 12:00:00 23 4 Sudeste 14 Sudeste 0 -- -- 36
2018-10-06 11:00:00 21.8 4 Este 10 Sudeste 0 -- -- 37
2018-10-06 10:00:00 20.1 3 Sudeste 10 Sudoeste 0 -- -- 43
2018-10-06 09:00:00 18.1 3 Oeste 14 Noroeste 0 -- -- 41
2018-10-06 08:00:00 17.8 3 Oeste 12 Noroeste 0 -- -- 41
2018-10-06 07:00:00 17.5 3 Noroeste 17 Noroeste 0 -- -- 41
2018-10-06 06:00:00 17.7 12 Noroeste 16 Noroeste 0 -- -- 41
2018-10-06 05:00:00 18.1 2 Oeste 10 Noroeste 0 -- -- 39
2018-10-06 04:00:00 18.8 9 Noroeste 20 Noroeste 0 -- -- 38
2018-10-06 03:00:00 18.1 11 Noroeste 19 Noroeste 0 -- -- 39
2018-10-06 02:00:00 18.9 14 Noroeste 21 Noroeste 0 -- -- 37
2018-10-06 01:00:00 18.9 14 Noroeste 21 Noroeste 0 -- -- 37
2018-10-06 00:00:00 20 15 Noroeste 24 Noroeste 0 -- -- 35
2018-10-05 23:00:00 19.8 18 Noroeste 24 Noroeste 0 -- -- 36
2018-10-05 22:00:00 19.4 15 Noroeste 23 Noroeste 0 -- -- 38
2018-10-05 21:00:00 18.6 14 Noroeste 20 Noroeste 0 -- -- 40
2018-10-05 20:00:00 20 10 Noroeste 19 Noroeste 0 -- -- 37
2018-10-05 19:00:00 22.6 9 Noroeste 17 Noroeste 0 -- -- 32
2018-10-05 18:00:00 27 10 Noroeste 18 Noroeste 0 -- -- 26
2018-10-05 17:00:00 27.4 9 Noroeste 21 Noroeste 0 -- -- 26
2018-10-05 16:00:00 27 6 Sur 17 Sudeste 0 -- -- 30
2018-10-05 15:00:00 26.1 6 Sur 17 Sur 0 -- -- 30
2018-10-05 14:00:00 25.3 8 Sur 13 Sudeste 0 -- -- 33
2018-10-05 13:00:00 23.4 6 Sudeste 13 Sudeste 0 -- -- 34
2018-10-05 12:00:00 22 6 Sudeste 13 Sudeste 0 -- -- 36
2018-10-05 11:00:00 20.7 4 Sudeste 9 Sudeste 0 -- -- 38
2018-10-05 10:00:00 19.6 2 Este 6 Sudeste 0 -- -- 42
2018-10-05 09:00:00 16.3 0 Calma 10 Noroeste 0 -- -- 48
2018-10-05 08:00:00 16 8 Noroeste 17 Noroeste 0 -- -- 46
2018-10-05 07:00:00 16.5 0 Calma 10 Oeste 0 -- -- 44
2018-10-05 06:00:00 -- 3 Noroeste 13 Noroeste 0 -- -- --
2018-10-05 05:00:00 18.9 9 Noroeste 15 Noroeste 0 -- -- 38
2018-10-05 04:00:00 18.5 5 Noroeste 18 Noroeste 0 -- -- 38
2018-10-05 03:00:00 18.8 6 Noroeste 14 Noroeste 0 -- -- 38
2018-10-05 02:00:00 19.7 2 Nordeste 14 Noroeste 0 -- -- 37
2018-10-05 01:00:00 20.2 12 Noroeste 23 Noroeste 0 -- -- 36
2018-10-05 00:00:00 20.9 17 Noroeste 24 Noroeste 0 -- -- 35
2018-10-04 23:00:00 21 16 Noroeste 21 Noroeste 0 -- -- 31
2018-10-04 22:00:00 20.4 11 Noroeste 18 Norte 0 -- -- 35
2018-10-04 21:00:00 19.9 7 Norte 14 Noroeste 0 -- -- 36
2018-10-04 20:00:00 20.9 9 Noroeste 18 Noroeste 0 -- -- 37
2018-10-04 19:00:00 23.6 10 Noroeste 14 Noroeste 0 -- -- 32
2018-10-04 18:00:00 27.5 4 Sur 13 Sudeste 0 -- -- 27
2018-10-04 17:00:00 27.7 6 Sudeste 14 Sur 0 -- -- 26
2018-10-04 16:00:00 27.3 6 Sudeste 16 Sudeste 0 -- -- 27
2018-10-04 15:00:00 27 6 Sur 18 Sudeste 0 -- -- 28
2018-10-04 14:00:00 26.1 8 Sudeste 16 Sudeste 0 -- -- 30
2018-10-04 13:00:00 24.7 8 Sur 16 Sudeste 0 -- -- 32
2018-10-04 12:00:00 23.4 5 Sudeste 10 Sudeste 0 -- -- 36
2018-10-04 11:00:00 22.6 5 Sudeste 9 Sudeste 0 -- -- 37
2018-10-04 10:00:00 21.4 2 Norte 5 Norte 0 -- -- 40
2018-10-04 09:00:00 17.3 3 Sudoeste 14 Noroeste 0 -- -- 43
2018-10-04 08:00:00 16.2 0 Calma 10 Sudoeste 0 -- -- 43
2018-10-04 07:00:00 16.7 3 Sur 12 Noroeste 0 -- -- 43
2018-10-04 06:00:00 17.8 4 Oeste 13 Sudoeste 0 -- -- 39
2018-10-04 05:00:00 19.6 7 Noroeste 20 Noroeste 0 -- -- 35
2018-10-04 04:00:00 19.4 8 Noroeste 17 Noroeste 0 -- -- 35
2018-10-04 03:00:00 19.7 11 Noroeste 16 Noroeste 0 -- -- 33
2018-10-04 02:00:00 19.6 9 Noroeste 17 Noroeste 0 -- -- 33
2018-10-04 01:00:00 19.6 10 Noroeste 17 Noroeste 0 -- -- 33
2018-10-04 00:00:00 19.7 10 Noroeste 17 Noroeste 0 -- -- 34
2018-10-03 23:00:00 20.1 10 Noroeste 21 Norte 0 -- -- 34
2018-10-03 22:00:00 -- 10 Noroeste 17 Noroeste 0 -- -- --
2018-10-03 21:00:00 20.6 11 Noroeste 19 Noroeste 0 -- -- 34
2018-10-03 20:00:00 21.2 10 Noroeste 17 Noroeste 0 -- -- 32
2018-10-03 19:00:00 22.4 9 Noroeste 13 Noroeste 0 -- -- 31
2018-10-03 18:00:00 27.5 3 Sur 12 Sudeste 0 -- -- 23
2018-10-03 17:00:00 27.2 7 Sudeste 14 Sur 0 -- -- 22
2018-10-03 16:00:00 26.6 6 Sudeste 16 Sudeste 0 -- -- 23
2018-10-03 15:00:00 25.7 4 Sudeste 12 Sudeste 0 -- -- 26
2018-10-03 14:00:00 24.9 8 Sudeste 15 Sudeste 0 -- -- 29
2018-10-03 13:00:00 23.6 6 Sur 14 Sudeste 0 -- -- 30
2018-10-03 12:00:00 22.4 8 Sudeste 13 Sudeste 0 -- -- 31
2018-10-03 11:00:00 21.3 6 Sudeste 10 Sudeste 0 -- -- 32
2018-10-03 10:00:00 19.3 3 Este 8 Sur 0 -- -- 35
2018-10-03 09:00:00 16.1 2 Sudoeste 10 Noroeste 0 -- -- 39
2018-10-03 08:00:00 14.9 6 Noroeste 14 Noroeste 0 -- -- 37
2018-10-03 07:00:00 14.7 9 Noroeste 14 Noroeste 0 -- -- 37
2018-10-03 06:00:00 15.6 3 Oeste 13 Noroeste 0 -- -- 33
2018-10-03 05:00:00 15.9 4 Oeste 16 Noroeste 0 -- -- 35
2018-10-03 04:00:00 18.5 6 Oeste 18 Noroeste 0 -- -- 30
2018-10-03 03:00:00 17.7 8 Noroeste 18 Noroeste 0 -- -- 32
2018-10-03 02:00:00 17.7 12 Noroeste 17 Noroeste 0 -- -- 33
2018-10-03 01:00:00 17.5 9 Noroeste 16 Noroeste 0 -- -- 33
2018-10-03 00:00:00 17.3 4 Oeste 13 Noroeste 0 -- -- 26
2018-10-02 23:00:00 17.6 8 Noroeste 16 Noroeste 0 -- -- 30
2018-10-02 22:00:00 17.8 12 Noroeste 18 Noroeste 0 -- -- 29
2018-10-02 21:00:00 18.5 4 Noroeste 15 Noroeste 0 -- -- 31
2018-10-02 20:00:00 18.9 9 Noroeste 14 Noroeste 0 -- -- 29
2018-10-02 19:00:00 21.1 3 Oeste 9 Sudeste 0 -- -- 24
2018-10-02 18:00:00 25.6 3 Sudeste 10 Sur 0 -- -- 20
2018-10-02 17:00:00 25.5 3 Noroeste 14 Sudeste 0 -- -- 21
2018-10-02 16:00:00 24.7 10 Sur 15 Sur 0 -- -- 22
2018-10-02 15:00:00 24.1 4 Sudeste 14 Sudeste 0 -- -- 22
2018-10-02 14:00:00 22.9 4 Sudeste 15 Sudeste 0 -- -- 20
2018-10-02 13:00:00 20.7 6 Sudeste 13 Sudeste 0 -- -- 33
2018-10-02 12:00:00 19 7 Sudeste 14 Sudeste 0 -- -- 36
2018-10-02 11:00:00 17.5 5 Sudeste 14 Sur 0 -- -- 40
2018-10-02 10:00:00 16.2 9 Sur 16 Noroeste 0 -- -- 41
2018-10-02 09:00:00 12.2 7 Noroeste 16 Noroeste 0 -- -- 52
2018-10-02 08:00:00 10.9 11 Noroeste 15 Noroeste 0 -- -- 52
2018-10-02 07:00:00 11.1 5 Noroeste 10 Noroeste 0 -- -- 52
2018-10-02 06:00:00 13.3 5 Sudoeste 13 Noroeste 0 -- -- 41
2018-10-02 05:00:00 13.4 12 Noroeste 22 Noroeste 0 -- -- 43
2018-10-02 04:00:00 14 3 Sudoeste 9 Sudoeste 0 -- -- 42
2018-10-02 03:00:00 14.9 0 Calma 10 Sudoeste 0 -- -- 41
2018-10-02 02:00:00 16.7 4 Oeste 17 Noroeste 0 -- -- 39
2018-10-02 01:00:00 17.2 11 Noroeste 17 Noroeste 0 -- -- 37
2018-10-02 00:00:00 19 8 Noroeste 18 Noroeste 0 -- -- 34
2018-10-01 23:00:00 18.6 9 Noroeste 18 Noroeste 0 -- -- 36
2018-10-01 22:00:00 19.5 12 Noroeste 17 Noroeste 0 -- -- 37
2018-10-01 21:00:00 20.7 10 Noroeste 18 Noroeste 0 -- -- 36
2018-10-01 20:00:00 21.2 12 Noroeste 19 Noroeste 0 -- -- 35
2018-10-01 19:00:00 23.1 6 Noroeste 10 Noroeste 0 -- -- 35
2018-10-01 18:00:00 27.5 4 Sudoeste 16 Sur 0 -- -- 27
2018-10-01 17:00:00 27.7 6 Sur 18 Sur 0 -- -- 26
2018-10-01 16:00:00 27.5 4 Sudeste 15 Sur 0 -- -- 28
2018-10-01 15:00:00 26.5 8 Sur 17 Sur 0 -- -- 27
2018-10-01 14:00:00 25.4 8 Sudeste 15 Sur 0 -- -- 30
2018-10-01 13:00:00 24.6 8 Sur 15 Sur 0 -- -- 32
2018-10-01 12:00:00 23 6 Sudeste 18 Sur 0 -- -- 36
2018-10-01 11:00:00 22.6 6 Sudeste 17 Sur 0 -- -- 38
2018-10-01 10:00:00 20 2 Este 13 Sudoeste 0 -- -- 45
2018-10-01 09:00:00 18.6 6 Noroeste 17 Noroeste 0 -- -- 46
2018-10-01 08:00:00 17.8 2 Oeste 19 Noroeste 0 -- -- 46
2018-10-01 07:00:00 18.3 3 Nordeste 16 Noroeste 0 -- -- 46
2018-10-01 06:00:00 19.9 9 Noroeste 14 Noroeste 0 -- -- 41
2018-10-01 05:00:00 21.1 6 Noroeste 17 Noroeste 0 -- -- 37
2018-10-01 04:00:00 21.9 11 Noroeste 21 Noroeste 0 -- -- 36
2018-10-01 03:00:00 22 9 Noroeste 22 Norte 0 -- -- 35
2018-10-01 02:00:00 23.6 17 Norte 30 Norte 0 -- -- 32
2018-10-01 01:00:00 23.2 16 Norte 31 Noroeste 0 -- -- 35
2018-10-01 00:00:00 23.1 20 Noroeste 28 Noroeste 0 -- -- 35
2018-09-30 23:00:00 23.7 17 Noroeste 27 Noroeste 0 -- -- 38
2018-09-30 22:00:00 23 17 Noroeste 26 Noroeste 0 -- -- 42
2018-09-30 21:00:00 22.7 18 Noroeste 26 Noroeste 0 -- -- 43
2018-09-30 20:00:00 23.7 16 Noroeste 24 Noroeste 0 -- -- 41
2018-09-30 19:00:00 25.8 11 Noroeste 20 Noroeste 0 -- -- 35
2018-09-30 18:00:00 28.4 12 Noroeste 28 Noroeste 0 -- -- 31
2018-09-30 17:00:00 30 8 Noroeste 20 Noroeste 0 -- -- 27
2018-09-30 16:00:00 29.3 8 Noroeste 21 Oeste 0 -- -- 29
2018-09-30 15:00:00 28.6 9 Sudeste 17 Este 0 -- -- 32
2018-09-30 14:00:00 27.5 6 Sudeste 18 Sur 0 -- -- 34
2018-09-30 13:00:00 25.9 6 Sudeste 13 Sudeste 0 -- -- 36
2018-09-30 12:00:00 24.5 6 Sudeste 12 Sudeste 0 -- -- 40
2018-09-30 11:00:00 23.1 6 Sudeste 11 Sudeste 0 -- -- 43
2018-09-30 10:00:00 21.4 2 Norte 5 Este 0 -- -- 49
2018-09-30 09:00:00 18.4 2 Sur 10 Sudoeste 0 -- -- 51
2018-09-30 08:00:00 19.2 2 Oeste 11 Oeste 0 -- -- 45
2018-09-30 07:00:00 20.2 2 Sudoeste 12 Noroeste 0 -- -- 43
2018-09-30 06:00:00 19.7 10 Noroeste 17 Noroeste 0 -- -- 44
2018-09-30 05:00:00 19.7 8 Noroeste 17 Noroeste 0 -- -- 44
2018-09-30 04:00:00 20.3 11 Noroeste 16 Noroeste 0 -- -- 43
2018-09-30 03:00:00 20.9 8 Noroeste 13 Noroeste 0 -- -- 41
2018-09-30 02:00:00 22.1 10 Noroeste 19 Noroeste 0 -- -- 39
2018-09-30 01:00:00 21.7 12 Noroeste 22 Noroeste 0 -- -- 41
2018-09-30 00:00:00 21.8 14 Noroeste 22 Noroeste 0 -- -- 40
2018-09-29 23:00:00 21.3 16 Noroeste 21 Noroeste 0 -- -- 41
2018-09-29 22:00:00 21.4 14 Noroeste 21 Noroeste 0 -- -- 42
2018-09-29 21:00:00 21.9 12 Noroeste 18 Noroeste 0 -- -- 41
2018-09-29 20:00:00 22.8 15 Noroeste 21 Noroeste 0 -- -- 41
2018-09-29 19:00:00 25 7 Noroeste 12 Noroeste 0 -- -- 38
2018-09-29 18:00:00 28.1 3 Sudeste 13 Sur 0 -- -- 32
2018-09-29 17:00:00 28.9 6 Sur 17 Sur 0 -- -- 29
2018-09-29 16:00:00 28.3 9 Sudeste 15 Sur 0 -- -- 31
2018-09-29 15:00:00 27.7 6 Sudeste 15 Sur 0 -- -- 35
2018-09-29 14:00:00 26.5 8 Sudeste 17 Sudeste 0 -- -- 38
2018-09-29 13:00:00 26.2 7 Sudeste 14 Sudeste 0 -- -- 38
2018-09-29 12:00:00 24.4 6 Sudeste 11 Sudeste 0 -- -- 45
2018-09-29 11:00:00 22 4 Este 9 Sudeste 0 -- -- 47
2018-09-29 10:00:00 21 2 Norte 10 Este 0 -- -- 55
2018-09-29 09:00:00 19.2 2 Norte 14 Noroeste 0 -- -- 57
2018-09-29 08:00:00 17.9 5 Noroeste 17 Noroeste 0 -- -- 56
2018-09-29 07:00:00 17.5 8 Noroeste 17 Noroeste 0 -- -- 58
2018-09-29 06:00:00 18.4 9 Noroeste 13 Noroeste 0 -- -- 57
2018-09-29 05:00:00 19.5 4 Oeste 14 Noroeste 0 -- -- 52
2018-09-29 04:00:00 20.1 6 Oeste 17 Noroeste 0 -- -- 52
2018-09-29 03:00:00 20.2 11 Noroeste 16 Noroeste 0 -- -- 51
2018-09-29 02:00:00 21.6 3 Noroeste 16 Noroeste 0 -- -- 45
2018-09-29 01:00:00 21.6 8 Noroeste 16 Noroeste 0 -- -- 42
2018-09-29 00:00:00 22.1 8 Noroeste 19 Noroeste 0 -- -- 39
2018-09-28 23:00:00 23.3 4 Noroeste 11 Oeste 0 -- -- 38
2018-09-28 22:00:00 22.3 10 Noroeste 17 Noroeste 0 -- -- 43
2018-09-28 21:00:00 21.8 9 Noroeste 18 Noroeste 0 -- -- 51
2018-09-28 20:00:00 22.8 13 Noroeste 19 Noroeste 0 -- -- 51
2018-09-28 19:00:00 25 7 Noroeste 15 Noroeste 0 -- -- 47
2018-09-28 18:00:00 28.1 3 Sur 14 Sur 0 -- -- 41
2018-09-28 17:00:00 28.3 4 Sur 18 Sur 0 -- -- 40
2018-09-28 16:00:00 28.1 6 Sudeste 18 Sudeste 0 -- -- 43
2018-09-28 15:00:00 26.9 8 Sur 15 Sudeste 0 -- -- 44
2018-09-28 14:00:00 26 8 Sudeste 16 Sudeste 0 -- -- 46
2018-09-28 13:00:00 24.9 8 Sudeste 16 Sudeste 0 -- -- 50
2018-09-28 12:00:00 23.4 7 Sudeste 13 Sudeste 0 -- -- 53
2018-09-28 11:00:00 22.5 7 Sur 11 Sudeste 0 -- -- 57
2018-09-28 10:00:00 21.1 3 Este 5 Norte 0 -- -- 61
2018-09-28 09:00:00 17.8 2 Noroeste 8 Noroeste 0 -- -- 74
2018-09-28 08:00:00 16.9 3 Sudoeste 10 Noroeste 0 -- -- 74
2018-09-28 07:00:00 17.4 6 Oeste 12 Noroeste 0 -- -- 72
2018-09-28 06:00:00 18.8 2 Norte 14 Noroeste 0 -- -- 65
2018-09-28 05:00:00 19.5 5 Noroeste 18 Noroeste 0 -- -- 62
2018-09-28 04:00:00 19.9 11 Noroeste 17 Noroeste 0 -- -- 63
2018-09-28 03:00:00 19.9 10 Noroeste 16 Noroeste 0 -- -- 64
2018-09-28 02:00:00 19.9 10 Noroeste 19 Noroeste 0 -- -- 63
2018-09-28 01:00:00 20 12 Noroeste 19 Noroeste 0 -- -- 62
2018-09-28 00:00:00 20.5 10 Noroeste 18 Noroeste 0 -- -- 63
2018-09-27 23:00:00 20.6 9 Noroeste 15 Noroeste 0 -- -- 64
2018-09-27 22:00:00 21 12 Noroeste 18 Noroeste 0 -- -- 64
2018-09-27 21:00:00 21 11 Noroeste 17 Noroeste 0 -- -- 64
2018-09-27 20:00:00 22.1 10 Noroeste 15 Noroeste 0 -- -- 61
2018-09-27 19:00:00 24.6 5 Sudoeste 14 Sur 0 -- -- 54
2018-09-27 18:00:00 26.7 6 Sur 17 Sur 0 -- -- 48
2018-09-27 17:00:00 26.8 9 Sur 19 Sur 0 -- -- 47
2018-09-27 16:00:00 26.8 8 Sur 23 Sur 0 -- -- 46
2018-09-27 15:00:00 26.3 10 Sudeste 21 Sur 0 -- -- 48
2018-09-27 14:00:00 24.7 8 Este 20 Sur 0 -- -- 54
2018-09-27 13:00:00 23.7 8 Sur 15 Sur 0 -- -- 57
2018-09-27 12:00:00 22.3 9 Sur 15 Sur 0 -- -- 61
2018-09-27 11:00:00 21 7 Sudeste 16 Sudeste 0 -- -- 64
2018-09-27 10:00:00 19.1 3 Este 6 Sudeste 0 -- -- 72
2018-09-27 09:00:00 16.6 3 Oeste 14 Sudoeste 0 -- -- 81
2018-09-27 08:00:00 16 3 Sur 8 Sudoeste 0 -- -- 83
2018-09-27 07:00:00 16.4 0 Calma 13 Sudoeste 0 -- -- 81
2018-09-27 06:00:00 16.4 2 Sudoeste 6 Norte 0 -- -- 83
2018-09-27 05:00:00 16.9 3 Este 14 Sur 0 -- -- 79
2018-09-27 04:00:00 18.5 4 Sudoeste 13 Sudoeste 0 -- -- 74
2018-09-27 03:00:00 19.5 7 Sudoeste 18 Sudoeste 0 -- -- 71
2018-09-27 02:00:00 20.3 11 Sur 21 Sur 0 -- -- 70
2018-09-27 01:00:00 21.2 0 Calma 9 Noroeste 0 -- -- 64
2018-09-27 00:00:00 22.1 5 Oeste 21 Sudeste 0 -- -- 60
2018-09-26 23:00:00 22.6 3 Sur 12 Oeste 0 -- -- 55
2018-09-26 22:00:00 22 5 Noroeste 16 Noroeste 0 -- -- 55
2018-09-26 21:00:00 21.1 10 Noroeste 17 Noroeste 0 -- -- 59
2018-09-26 20:00:00 22.4 5 Oeste 18 Sudeste 0 -- -- 56
2018-09-26 19:00:00 24.2 5 Sur 12 Sudeste 0 -- -- 59
2018-09-26 18:00:00 24.7 6 Sudoeste 16 Sur 0 -- -- 56
2018-09-26 17:00:00 24.3 13 Sudeste 28 Sudeste 0 -- -- 60
2018-09-26 16:00:00 25 11 Sur 30 Sur 0 -- -- 60
2018-09-26 15:00:00 25.8 14 Sur 29 Sur 0 -- -- 57
2018-09-26 14:00:00 25.1 7 Sudeste 25 Sudeste 0 -- -- 59
2018-09-26 13:00:00 23 11 Sudeste 29 Sudeste 0 -- -- 65
2018-09-26 12:00:00 21.3 9 Sudeste 19 Sudeste 0 -- -- 72
2018-09-26 11:00:00 20 5 Sudeste 22 Sur 0 -- -- 77
2018-09-26 10:00:00 19.9 10 Sur 23 Sudoeste 0 -- -- 77
2018-09-26 09:00:00 19.4 8 Sur 19 Sudoeste 0 -- -- 79
2018-09-26 08:00:00 19.1 3 Sudoeste 15 Sudoeste 0 -- -- 80
2018-09-26 07:00:00 18.7 5 Sur 13 Sur 0 -- -- 80
2018-09-26 06:00:00 19.2 5 Sur 17 Sur 0 -- -- 75
2018-09-26 05:00:00 20 8 Sudoeste 21 Sudoeste 0 -- -- 68
2018-09-26 04:00:00 21.4 6 Sudoeste 23 Sur 0 -- -- 62
2018-09-26 03:00:00 22 4 Oeste 18 Noroeste 0 -- -- 47
2018-09-26 02:00:00 23.6 6 Sudoeste 17 Noroeste 0 -- -- 43
2018-09-26 01:00:00 23.9 10 Noroeste 21 Noroeste 0 -- -- 42
2018-09-26 00:00:00 25.3 8 Noroeste 18 Noroeste 0 -- -- 37
2018-09-25 23:00:00 25.2 11 Noroeste 18 Noroeste 0 -- -- 39
2018-09-25 22:00:00 25.2 14 Noroeste 25 Noroeste 0 -- -- 39
2018-09-25 21:00:00 24.8 15 Noroeste 24 Noroeste 0 -- -- 40
2018-09-25 20:00:00 25.7 16 Noroeste 22 Noroeste 0 -- -- 40
2018-09-25 19:00:00 28 8 Noroeste 17 Oeste 0 -- -- 35
2018-09-25 18:00:00 31.5 9 Noroeste 17 Oeste 0 -- -- 31
2018-09-25 17:00:00 31.3 8 Sur 15 Sur 0 -- -- 36
2018-09-25 16:00:00 31 8 Sur 14 Sur 0 -- -- 36
2018-09-25 15:00:00 30.1 6 Sur 15 Sur 0 -- -- 38
2018-09-25 14:00:00 29.5 8 Sur 15 Sudeste 0 -- -- 39
2018-09-25 13:00:00 28 8 Sudeste 17 Sur 0 -- -- 42
2018-09-25 12:00:00 26.5 6 Sur 15 Sur 0 -- -- 43
2018-09-25 11:00:00 25.1 6 Sudeste 9 Sudeste 0 -- -- 45
2018-09-25 10:00:00 23.3 3 Nordeste 8 Sudoeste 0 -- -- 52
2018-09-25 09:00:00 20.4 0 Calma 8 Sudoeste 0 -- -- 59
2018-09-25 08:00:00 20.4 3 Sur 7 Norte 0 -- -- 56
2018-09-25 07:00:00 21.2 2 Noroeste 12 Noroeste 0 -- -- 53
2018-09-25 06:00:00 21.3 9 Noroeste 14 Noroeste 0 -- -- 53
2018-09-25 05:00:00 22 2 Sudoeste 18 Noroeste 0 -- -- 50
2018-09-25 04:00:00 22 13 Noroeste 19 Noroeste 0 -- -- 51
2018-09-25 03:00:00 22.7 7 Noroeste 18 Noroeste 0 -- -- 48
2018-09-25 02:00:00 23.8 12 Noroeste 18 Noroeste 0 -- -- 47
2018-09-25 01:00:00 24.5 9 Noroeste 16 Noroeste 0 -- -- 43
2018-09-25 00:00:00 25.3 11 Noroeste 18 Noroeste 0 -- -- 39
2018-09-24 23:00:00 25 10 Noroeste 18 Noroeste 0 -- -- 40
2018-09-24 22:00:00 25.9 12 Noroeste 20 Noroeste 0 -- -- 39
2018-09-24 21:00:00 26.3 9 Noroeste 19 Norte 0 -- -- 40
2018-09-24 20:00:00 26.7 9 Noroeste 21 Noroeste 0 -- -- 41
2018-09-24 19:00:00 29 10 Noroeste 13 Noroeste 0 -- -- 34
2018-09-24 18:00:00 32.7 4 Sur 14 Sudeste 0 -- -- 27
2018-09-24 17:00:00 32.8 6 Sur 15 Sur 0 -- -- 25
2018-09-24 16:00:00 33 8 Sur 17 Sur 0 -- -- 25
2018-09-24 15:00:00 32.1 8 Sudeste 15 Sudeste 0 -- -- 27
2018-09-24 14:00:00 31.2 4 Sudeste 14 Sur 0 -- -- 29
2018-09-24 13:00:00 29.8 8 Sur 13 Sur 0 -- -- 32
2018-09-24 12:00:00 28.2 6 Sudeste 10 Sudeste 0 -- -- 36
2018-09-24 11:00:00 25.7 4 Sudeste 8 Sur 0 -- -- 37
2018-09-24 10:00:00 24.6 6 Sur 10 Sur 0 -- -- 37
2018-09-24 09:00:00 23.2 4 Noroeste 6 Norte 0 -- -- 43
2018-09-24 08:00:00 23.2 6 Noroeste 21 Noroeste 0 -- -- 34
2018-09-24 07:00:00 21.9 14 Noroeste 21 Noroeste 0 -- -- 36
2018-09-24 06:00:00 22.2 11 Noroeste 19 Noroeste 0 -- -- 36
2018-09-24 05:00:00 21.7 8 Noroeste 15 Noroeste 0 -- -- 39
2018-09-24 04:00:00 22.4 8 Noroeste 19 Noroeste 0 -- -- 38
2018-09-24 03:00:00 24.4 9 Noroeste 16 Noroeste 0 -- -- 34
2018-09-24 02:00:00 25.8 9 Norte 17 Norte 0 -- -- 31
2018-09-24 01:00:00 27.3 10 Norte 28 Norte 0 -- -- 29
2018-09-24 00:00:00 27.8 17 Norte 30 Norte 0 -- -- 29
2018-09-23 23:00:00 27.9 14 Norte 29 Norte 0 -- -- 28
2018-09-23 22:00:00 27.1 14 Norte 29 Noroeste 0 -- -- 31
2018-09-23 21:00:00 27 14 Noroeste 25 Noroeste 0 -- -- 32
2018-09-23 20:00:00 27.5 12 Noroeste 26 Noroeste 0 -- -- 34
2018-09-23 19:00:00 29 15 Noroeste 23 Noroeste 0 -- -- 32
2018-09-23 18:00:00 32.4 10 Norte 21 Noroeste 0 -- -- 30
2018-09-23 17:00:00 33.6 4 Oeste 18 Sur 0 -- -- 27
2018-09-23 16:00:00 33.3 11 Sur 19 Sur 0 -- -- 27
2018-09-23 15:00:00 32.5 10 Sur 19 Sur 0 -- -- 28
2018-09-23 14:00:00 31.9 8 Sur 13 Sur 0 -- -- 28
2018-09-23 13:00:00 30.4 10 Sur 16 Sudeste 0 -- -- 32
2018-09-23 12:00:00 28.6 4 Sudeste 8 Este 0 -- -- 35
2018-09-23 11:00:00 26.8 5 Sudeste 12 Sudeste 0 -- -- 36
2018-09-23 10:00:00 26.1 3 Este 10 Sudoeste 0 -- -- 44
2018-09-23 09:00:00 23.6 9 Noroeste 18 Noroeste 0 -- -- 43
2018-09-23 08:00:00 21.6 9 Noroeste 19 Noroeste 0 -- -- 47
2018-09-23 07:00:00 22.2 9 Noroeste 15 Noroeste 0 -- -- 44
2018-09-23 06:00:00 22.7 4 Oeste 21 Noroeste 0 -- -- 43
2018-09-23 05:00:00 23.5 14 Noroeste 20 Noroeste 0 -- -- 41
2018-09-23 04:00:00 23.6 9 Noroeste 16 Noroeste 0 -- -- 42
2018-09-23 03:00:00 24 12 Noroeste 18 Noroeste 0 -- -- 40
2018-09-23 02:00:00 24.9 10 Noroeste 15 Noroeste 0 -- -- 38
2018-09-23 01:00:00 25.5 10 Noroeste 16 Noroeste 0 -- -- 36
2018-09-23 00:00:00 25.8 8 Noroeste 21 Norte 0 -- -- 36
2018-09-22 23:00:00 25.7 13 Noroeste 23 Noroeste 0 -- -- 37
2018-09-22 22:00:00 25.3 16 Noroeste 24 Noroeste 0 -- -- 38
2018-09-22 21:00:00 24.1 14 Noroeste 21 Noroeste 0 -- -- 42
2018-09-22 20:00:00 25.3 11 Noroeste 17 Noroeste 0 -- -- 43
2018-09-22 19:00:00 28.6 12 Noroeste 17 Noroeste 0 -- -- 37
2018-09-22 18:00:00 31.9 9 Noroeste 17 Noroeste 0 -- -- 31
2018-09-22 17:00:00 32.6 8 Noroeste 18 Norte 0 -- -- 29
2018-09-22 16:00:00 31.7 6 Sudeste 23 Sudeste 0 -- -- 32
2018-09-22 15:00:00 31.5 9 Sur 18 Sur 0 -- -- 33
2018-09-22 14:00:00 30.7 9 Sur 16 Sudeste 0 -- -- 34
2018-09-22 13:00:00 29.7 8 Sudeste 14 Sur 0 -- -- 34
2018-09-22 12:00:00 27.7 5 Sudeste 12 Sudeste 0 -- -- 41
2018-09-22 11:00:00 27.1 7 Sudeste 10 Sudeste 0 -- -- 43
2018-09-22 10:00:00 25.6 0 Calma 13 Norte 0 -- -- 50
2018-09-22 09:00:00 21.2 8 Noroeste 12 Noroeste 0 -- -- 57
2018-09-22 08:00:00 20.6 10 Noroeste 15 Oeste 0 -- -- 53
2018-09-22 07:00:00 21.4 9 Noroeste 14 Noroeste 0 -- -- 51
2018-09-22 06:00:00 21.8 9 Noroeste 15 Noroeste 0 -- -- 48
2018-09-22 05:00:00 21.7 5 Noroeste 17 Noroeste 0 -- -- 45
2018-09-22 04:00:00 22 7 Oeste 16 Noroeste 0 -- -- 44
2018-09-22 03:00:00 22.1 11 Noroeste 20 Noroeste 0 -- -- 43
2018-09-22 02:00:00 22.5 13 Noroeste 19 Noroeste 0 -- -- 42
2018-09-22 01:00:00 22.8 12 Noroeste 18 Noroeste 0 -- -- 42
2018-09-22 00:00:00 23.8 12 Noroeste 24 Noroeste 0 -- -- 41